createdAt,value
2022-09-20T00:01:32.679Z,54.13
2022-09-20T00:04:02.453Z,54.26
2022-09-20T00:06:31.721Z,54.25
2022-09-20T00:08:59.843Z,54.21
2022-09-20T00:11:29.721Z,54.32
2022-09-20T00:13:58.972Z,54.25
2022-09-20T00:16:35.176Z,54.48
2022-09-20T00:19:04.289Z,54.56
2022-09-20T00:21:33.007Z,54.72
2022-09-20T00:24:00.484Z,54.60
2022-09-20T00:26:28.328Z,54.38
2022-09-20T00:28:56.113Z,54.42
2022-09-20T00:31:23.067Z,54.64
2022-09-20T00:34:08.299Z,55.00
2022-09-20T00:36:35.155Z,54.76
2022-09-20T00:39:03.556Z,55.02
2022-09-20T00:41:31.869Z,54.79
2022-09-20T00:43:59.394Z,54.98
2022-09-20T00:46:43.653Z,54.84
2022-09-20T00:49:16.498Z,54.86
2022-09-20T00:51:47.261Z,55.16
2022-09-20T00:54:20.304Z,55.30
2022-09-20T00:56:48.481Z,55.38
2022-09-20T00:59:19.976Z,55.48
2022-09-20T01:01:52.558Z,55.54
2022-09-20T01:04:23.131Z,55.17
2022-09-20T01:06:51.841Z,55.19
2022-09-20T01:09:18.566Z,55.25
2022-09-20T01:11:46.701Z,55.34
2022-09-20T01:14:15.533Z,55.43
2022-09-20T01:16:42.563Z,55.40
2022-09-20T01:19:27.456Z,55.14
2022-09-20T01:21:54.921Z,55.32
2022-09-20T01:24:38.981Z,55.17
2022-09-20T01:27:34.019Z,55.12
2022-09-20T01:30:00.809Z,55.49
2022-09-20T01:32:52.397Z,55.27
2022-09-20T01:35:21.540Z,55.07
2022-09-20T01:38:23.229Z,54.78
2022-09-20T01:40:51.004Z,55.27
2022-09-20T01:43:29.765Z,55.03
2022-09-20T01:46:02.685Z,55.14
2022-09-20T01:48:32.463Z,55.71
2022-09-20T01:51:18.068Z,56.22
2022-09-20T01:54:23.766Z,55.64
2022-09-20T01:57:27.312Z,55.91
2022-09-20T01:59:57.098Z,56.66
2022-09-20T02:02:48.896Z,57.62
2022-09-20T02:05:48.171Z,57.90
2022-09-20T02:08:30.333Z,58.89
2022-09-20T02:11:13.235Z,59.48
2022-09-20T02:13:40.152Z,59.12
2022-09-20T02:16:25.125Z,59.46
2022-09-20T02:19:16.577Z,58.62
2022-09-20T02:22:21.749Z,58.39
2022-09-20T02:25:02.112Z,57.63
2022-09-20T02:27:34.468Z,57.83
2022-09-20T02:30:07.338Z,57.65
2022-09-20T02:32:51.984Z,57.74
2022-09-20T02:35:30.745Z,57.50
2022-09-20T02:38:11.689Z,57.34
2022-09-20T02:40:56.950Z,57.41
2022-09-20T02:43:48.577Z,57.91
2022-09-20T02:46:38.360Z,57.92
2022-09-20T02:49:11.390Z,57.77
2022-09-20T02:51:46.945Z,58.15
2022-09-20T02:54:19.749Z,57.71
2022-09-20T02:57:03.069Z,58.28
2022-09-20T02:59:40.772Z,57.98
2022-09-20T03:02:12.718Z,58.02
2022-09-20T03:05:11.380Z,58.55
2022-09-20T03:07:47.233Z,58.99
2022-09-20T03:10:33.989Z,59.73
2022-09-20T03:13:19.285Z,59.95
2022-09-20T03:15:48.938Z,60.29
2022-09-20T03:18:38.359Z,60.66
2022-09-20T03:21:26.911Z,60.41
2022-09-20T03:24:21.400Z,59.19
2022-09-20T03:26:57.162Z,58.90
2022-09-20T03:29:51.631Z,58.74
2022-09-20T03:32:49.103Z,58.93
2022-09-20T03:35:45.259Z,59.12
2022-09-20T03:38:47.453Z,58.75
2022-09-20T03:41:26.297Z,58.67
2022-09-20T03:43:52.942Z,58.87
2022-09-20T03:46:22.973Z,59.04
2022-09-20T03:49:17.734Z,59.13
2022-09-20T03:52:14.557Z,59.02
2022-09-20T03:55:02.715Z,58.76
2022-09-20T03:57:39.631Z,58.93
2022-09-20T04:00:12.315Z,58.97
2022-09-20T04:02:51.302Z,58.40
2022-09-20T04:05:27.248Z,58.41
2022-09-20T04:07:59.869Z,58.47
2022-09-20T04:11:08.437Z,58.63
2022-09-20T04:13:37.125Z,58.99
2022-09-20T04:16:41.219Z,58.54
2022-09-20T04:19:32.152Z,58.55
2022-09-20T04:22:01.065Z,59.31
2022-09-20T04:24:30.918Z,58.83
2022-09-20T04:27:21.083Z,58.98
2022-09-20T04:29:58.237Z,59.11
2022-09-20T04:32:48.435Z,59.32
2022-09-20T04:35:42.266Z,59.01
2022-09-20T04:38:15.061Z,58.75
2022-09-20T04:41:07.940Z,58.70
2022-09-20T04:43:51.394Z,59.08
2022-09-20T04:46:57.910Z,59.53
2022-09-20T04:49:39.820Z,59.92
2022-09-20T04:52:24.770Z,59.97
2022-09-20T04:55:25.178Z,59.98
2022-09-20T04:58:33.265Z,60.37
2022-09-20T05:01:16.945Z,61.08
2022-09-20T05:04:02.011Z,61.52
2022-09-20T05:06:47.130Z,62.34
2022-09-20T05:09:32.557Z,62.61
2022-09-20T05:12:36.277Z,62.88
2022-09-20T05:15:10.397Z,63.12
2022-09-20T05:18:05.080Z,63.61
2022-09-20T05:20:59.910Z,63.99
2022-09-20T05:24:06.711Z,64.02
2022-09-20T05:26:38.967Z,64.21
2022-09-20T05:29:10.325Z,64.22
2022-09-20T05:32:14.529Z,64.21
2022-09-20T05:35:02.496Z,64.33
2022-09-20T05:37:37.648Z,64.09
2022-09-20T05:40:22.089Z,64.17
2022-09-20T05:43:12.160Z,64.07
2022-09-20T05:45:53.368Z,64.19
2022-09-20T05:48:22.929Z,64.21
2022-09-20T05:51:14.317Z,63.37
2022-09-20T05:53:50.012Z,63.06
2022-09-20T05:56:35.192Z,63.71
2022-09-20T05:59:14.296Z,63.80
2022-09-20T06:02:03.880Z,64.14
2022-09-20T06:04:40.379Z,64.07
2022-09-20T06:07:19.503Z,63.88
2022-09-20T06:10:15.465Z,64.01
2022-09-20T06:13:09.058Z,63.60
2022-09-20T06:15:47.093Z,63.04
2022-09-20T06:18:17.879Z,63.37
2022-09-20T06:21:00.292Z,63.48
2022-09-20T06:23:27.537Z,63.21
2022-09-20T06:26:02.511Z,62.75
2022-09-20T06:28:42.207Z,62.63
2022-09-20T06:31:10.702Z,62.77
2022-09-20T06:33:50.563Z,62.57
2022-09-20T06:36:38.053Z,62.66
2022-09-20T06:39:43.808Z,62.44
2022-09-20T06:42:11.053Z,62.07
2022-09-20T06:44:43.125Z,62.14
2022-09-20T06:47:15.552Z,62.42
2022-09-20T06:49:46.925Z,62.08
2022-09-20T06:52:15.977Z,62.37
2022-09-20T06:54:47.207Z,61.85
2022-09-20T06:57:40.420Z,62.16
2022-09-20T07:00:10.970Z,61.76
2022-09-20T07:02:37.722Z,61.76
2022-09-20T07:05:07.846Z,61.71
2022-09-20T07:07:34.553Z,61.90
2022-09-20T07:10:01.381Z,61.91
2022-09-20T07:12:29.548Z,61.16
2022-09-20T07:14:56.230Z,61.32
2022-09-20T07:17:23.168Z,61.47
2022-09-20T07:19:50.111Z,60.69
2022-09-20T07:22:17.208Z,60.50
2022-09-20T07:24:45.030Z,60.47
2022-09-20T07:27:12.723Z,60.44
2022-09-20T07:29:41.187Z,59.64
2022-09-20T07:32:08.587Z,59.75
2022-09-20T07:34:35.389Z,59.17
2022-09-20T07:37:02.265Z,58.90
2022-09-20T07:39:29.524Z,58.77
2022-09-20T07:41:56.865Z,58.60
2022-09-20T07:44:28.011Z,58.38
2022-09-20T07:47:01.343Z,57.59
2022-09-20T07:49:32.639Z,57.45
2022-09-20T07:51:59.736Z,57.07
2022-09-20T07:54:28.136Z,56.61
2022-09-20T07:56:54.885Z,56.26
2022-09-20T07:59:21.854Z,55.82
2022-09-20T08:01:48.899Z,55.63
2022-09-20T08:04:15.749Z,55.14
2022-09-20T08:06:44.763Z,54.40
2022-09-20T08:09:12.921Z,54.20
2022-09-20T08:11:41.848Z,53.46
2022-09-20T08:14:13.464Z,53.06
2022-09-20T08:16:43.211Z,52.42
2022-09-20T08:19:18.589Z,52.03
2022-09-20T08:21:45.432Z,51.04
2022-09-20T08:24:12.392Z,50.30
2022-09-20T08:26:39.519Z,49.73
2022-09-20T08:29:06.918Z,48.81
2022-09-20T08:31:37.071Z,48.31
2022-09-20T08:34:07.046Z,47.25
2022-09-20T08:36:37.051Z,46.66
2022-09-20T08:42:18.650Z,46.37
2022-09-20T08:45:00.485Z,45.02
2022-09-20T08:47:35.717Z,44.07
2022-09-20T08:50:11.487Z,43.58
2022-09-20T08:52:40.845Z,42.67
2022-09-20T08:55:28.094Z,42.68
2022-09-20T08:57:57.668Z,41.99
2022-09-20T09:00:30.627Z,41.56
2022-09-20T09:03:01.526Z,40.87
2022-09-20T09:05:43.375Z,40.54
2022-09-20T09:08:16.859Z,40.51
2022-09-20T09:10:55.220Z,40.49
2022-09-20T09:13:32.175Z,40.16
2022-09-20T09:16:23.069Z,39.87
2022-09-20T09:18:53.397Z,39.35
2022-09-20T09:21:27.952Z,39.19
2022-09-20T09:24:20.793Z,38.79
2022-09-20T09:26:47.495Z,38.09
2022-09-20T09:29:23.497Z,38.09
2022-09-20T09:31:52.627Z,37.29
2022-09-20T09:34:39.332Z,37.78
2022-09-20T09:37:06.047Z,37.10
2022-09-20T09:39:38.545Z,36.70
2022-09-20T09:42:26.019Z,36.25
2022-09-20T09:44:52.737Z,35.41
2022-09-20T09:47:27.904Z,35.92
2022-09-20T09:50:06.097Z,35.09
2022-09-20T09:52:36.634Z,34.81
2022-09-20T09:55:05.867Z,35.08
2022-09-20T09:57:54.528Z,34.77
2022-09-20T10:00:23.734Z,34.80
2022-09-20T10:03:09.364Z,34.34
2022-09-20T10:06:10.293Z,34.29
2022-09-20T10:08:37.721Z,33.64
2022-09-20T10:11:42.860Z,34.40
2022-09-20T10:14:23.275Z,33.35
2022-09-20T10:16:55.909Z,33.31
2022-09-20T10:19:49.295Z,33.66
2022-09-20T10:22:31.288Z,33.44
2022-09-20T10:25:19.875Z,33.71
2022-09-20T10:28:14.556Z,33.25
2022-09-20T10:30:57.271Z,32.61
2022-09-20T10:33:53.208Z,32.96
2022-09-20T10:36:54.510Z,33.12
2022-09-20T10:39:27.218Z,32.10
2022-09-20T10:42:38.243Z,32.19
2022-09-20T10:46:03.697Z,32.93
2022-09-20T10:48:42.864Z,32.53
2022-09-20T10:51:35.483Z,32.40
2022-09-20T10:54:17.628Z,32.21
2022-09-20T10:56:50.668Z,32.22
2022-09-20T10:59:36.326Z,31.59
2022-09-20T11:02:28.335Z,32.21
2022-09-20T11:05:00.881Z,31.84
2022-09-20T11:07:33.744Z,31.39
2022-09-20T11:10:13.649Z,31.17
2022-09-20T11:13:11.704Z,31.88
2022-09-20T11:16:02.687Z,31.58
2022-09-20T11:18:33.616Z,31.32
2022-09-20T11:21:11.380Z,31.08
2022-09-20T11:23:44.327Z,30.59
2022-09-20T11:26:17.949Z,30.47
2022-09-20T11:28:51.635Z,30.51
2022-09-20T11:31:35.909Z,30.69
2022-09-20T11:34:21.314Z,30.46
2022-09-20T11:36:54.768Z,29.60
2022-09-20T11:39:21.392Z,29.31
2022-09-20T11:41:51.154Z,28.78
2022-09-20T11:44:20.207Z,27.88
2022-09-20T11:46:52.839Z,27.51
2022-09-20T11:49:46.208Z,27.53
2022-09-20T11:53:06.622Z,26.54
2022-09-20T11:55:37.214Z,25.72
2022-09-20T11:58:10.309Z,25.14
2022-09-20T12:00:41.814Z,24.46
2022-09-20T12:03:33.047Z,24.40
2022-09-20T12:06:26.571Z,24.10
2022-09-20T12:08:54.028Z,23.74
2022-09-20T12:11:36.351Z,23.46
2022-09-20T12:14:17.749Z,22.77
2022-09-20T12:16:47.550Z,23.00
2022-09-20T12:19:33.065Z,22.46
2022-09-20T12:21:59.798Z,21.88
2022-09-20T12:24:45.353Z,22.13
2022-09-20T12:27:27.827Z,22.17
2022-09-20T12:30:05.430Z,22.17
2022-09-20T12:32:35.203Z,22.63
2022-09-20T12:35:02.225Z,22.47
2022-09-20T12:37:29.671Z,21.99
2022-09-20T12:39:56.724Z,22.09
2022-09-20T12:42:30.548Z,22.14
2022-09-20T12:45:07.534Z,21.89
2022-09-20T12:47:37.823Z,21.91
2022-09-20T12:50:34.155Z,21.84
2022-09-20T12:53:12.306Z,21.87
2022-09-20T12:55:55.374Z,21.59
2022-09-20T12:58:24.374Z,21.59
2022-09-20T13:01:14.357Z,21.63
2022-09-20T13:03:42.744Z,21.31
2022-09-20T13:06:16.742Z,21.72
2022-09-20T13:08:48.350Z,21.72
2022-09-20T13:11:41.570Z,24.05
2022-09-20T13:14:08.381Z,26.21
2022-09-20T13:16:38.000Z,27.52
2022-09-20T13:19:33.739Z,29.29
2022-09-20T13:22:00.399Z,30.60
2022-09-20T13:24:32.501Z,31.53
2022-09-20T13:27:07.693Z,32.23
2022-09-20T13:29:37.704Z,33.21
2022-09-20T13:32:24.268Z,33.54
2022-09-20T13:35:12.291Z,34.06
2022-09-20T13:37:45.391Z,34.54
2022-09-20T13:40:21.442Z,35.27
2022-09-20T13:42:50.319Z,35.98
2022-09-20T13:45:19.672Z,36.42
2022-09-20T13:47:51.968Z,36.66
2022-09-20T13:50:21.696Z,37.05
2022-09-20T13:52:53.560Z,37.41
2022-09-20T13:55:32.348Z,37.96
2022-09-20T13:58:09.124Z,38.18
2022-09-20T14:00:38.430Z,38.23
2022-09-20T14:03:05.420Z,38.66
2022-09-20T14:05:32.515Z,38.71
2022-09-20T14:08:01.372Z,38.55
2022-09-20T14:10:38.729Z,39.19
2022-09-20T14:13:08.638Z,39.36
2022-09-20T14:15:43.926Z,39.19
2022-09-20T14:18:22.300Z,39.83
2022-09-20T14:20:53.073Z,40.53
2022-09-20T14:23:27.848Z,40.60
2022-09-20T14:26:08.395Z,40.39
2022-09-20T14:28:35.087Z,40.92
2022-09-20T14:31:08.822Z,40.95
2022-09-20T14:33:44.295Z,40.74
2022-09-20T14:36:16.357Z,40.75
2022-09-20T14:38:45.675Z,40.90
2022-09-20T14:41:13.600Z,40.86
2022-09-20T14:43:42.439Z,41.51
2022-09-20T14:46:18.391Z,41.65
2022-09-20T14:48:45.752Z,41.73
2022-09-20T14:51:18.930Z,42.15
2022-09-20T14:53:48.632Z,41.93
2022-09-20T14:56:16.863Z,42.64
2022-09-20T14:59:07.827Z,42.60
2022-09-20T15:01:37.968Z,42.88
2022-09-20T15:04:25.605Z,42.80
2022-09-20T15:06:53.222Z,42.98
2022-09-20T15:09:21.959Z,43.07
2022-09-20T15:12:13.807Z,42.87
2022-09-20T15:14:41.545Z,42.91
2022-09-20T15:17:15.547Z,43.09
2022-09-20T15:19:42.300Z,42.94
2022-09-20T15:22:12.294Z,42.91
2022-09-20T15:24:39.356Z,42.94
2022-09-20T15:27:06.522Z,42.47
2022-09-20T15:29:33.703Z,42.73
2022-09-20T15:32:00.527Z,42.89
2022-09-20T15:34:27.233Z,43.74
2022-09-20T15:36:54.882Z,43.33
2022-09-20T15:39:22.562Z,43.44
2022-09-20T15:41:52.731Z,43.12
2022-09-20T15:44:19.968Z,43.27
2022-09-20T15:46:48.533Z,43.33
2022-09-20T15:49:15.235Z,43.31
2022-09-20T15:51:41.938Z,42.76
2022-09-20T15:54:13.814Z,43.62
2022-09-20T15:56:41.359Z,43.61
2022-09-20T15:59:10.947Z,43.15
2022-09-20T16:01:40.033Z,43.30
2022-09-20T16:04:14.884Z,43.50
2022-09-20T16:06:43.967Z,43.81
2022-09-20T16:09:10.953Z,44.07
2022-09-20T16:11:38.855Z,43.62
2022-09-20T16:14:06.773Z,44.24
2022-09-20T16:16:40.434Z,44.25
2022-09-20T16:19:20.879Z,44.10
2022-09-20T16:21:58.320Z,44.98
2022-09-20T16:24:28.186Z,44.76
2022-09-20T16:26:55.065Z,45.01
2022-09-20T16:29:26.152Z,44.78
2022-09-20T16:31:54.612Z,44.65
2022-09-20T16:34:29.781Z,45.09
2022-09-20T16:37:17.244Z,44.82
2022-09-20T16:39:44.552Z,44.94
2022-09-20T16:42:13.222Z,44.89
2022-09-20T16:44:44.944Z,44.77
2022-09-20T16:47:18.290Z,45.18
2022-09-20T16:49:47.426Z,45.08
2022-09-20T16:52:14.658Z,44.91
2022-09-20T16:54:41.393Z,45.43
2022-09-20T16:57:08.322Z,44.83
2022-09-20T16:59:35.331Z,44.84
2022-09-20T17:02:02.235Z,45.36
2022-09-20T17:04:29.109Z,44.87
2022-09-20T17:06:55.914Z,45.48
2022-09-20T17:09:22.713Z,45.22
2022-09-20T17:11:50.491Z,45.61
2022-09-20T17:14:19.756Z,45.44
2022-09-20T17:16:48.172Z,45.04
2022-09-20T17:19:18.638Z,45.45
2022-09-20T17:21:51.490Z,45.47
2022-09-20T17:24:20.567Z,45.55
2022-09-20T17:26:49.057Z,45.81
2022-09-20T17:29:17.602Z,45.83
2022-09-20T17:31:55.139Z,46.09
2022-09-20T17:34:24.016Z,46.00
2022-09-20T17:36:51.045Z,46.45
2022-09-20T17:39:18.734Z,46.39
2022-09-20T17:41:48.336Z,46.46
2022-09-20T17:44:16.145Z,46.51
2022-09-20T17:46:45.485Z,46.60
2022-09-20T17:49:13.552Z,46.79
2022-09-20T17:51:52.396Z,46.77
2022-09-20T17:54:20.308Z,46.91
2022-09-20T17:56:50.438Z,47.15
2022-09-20T17:59:19.169Z,47.29
2022-09-20T18:01:48.741Z,47.09
2022-09-20T18:04:16.127Z,47.50
2022-09-20T18:06:48.130Z,47.37
2022-09-20T18:09:17.032Z,47.47
2022-09-20T18:11:49.838Z,47.46
2022-09-20T18:14:18.544Z,47.88
2022-09-20T18:16:45.624Z,48.00
2022-09-20T18:19:14.330Z,47.50
2022-09-20T18:21:41.204Z,47.65
2022-09-20T18:24:10.016Z,47.67
2022-09-20T18:26:38.086Z,47.62
2022-09-20T18:29:08.144Z,47.65
2022-09-20T18:31:42.312Z,48.08
2022-09-20T18:34:20.350Z,48.08
2022-09-20T18:36:52.789Z,48.41
2022-09-20T18:39:27.472Z,48.64
2022-09-20T18:41:55.447Z,49.00
2022-09-20T18:44:23.378Z,49.00
2022-09-20T18:46:53.151Z,49.22
2022-09-20T18:49:21.832Z,49.29
2022-09-20T18:51:49.796Z,49.43
2022-09-20T18:54:16.629Z,49.73
2022-09-20T18:56:49.072Z,49.79
2022-09-20T18:59:27.488Z,49.82
2022-09-20T19:02:02.440Z,49.83
2022-09-20T19:05:01.061Z,50.14
2022-09-20T19:07:28.095Z,50.21
2022-09-20T19:10:16.001Z,50.63
2022-09-20T19:12:56.802Z,50.64
2022-09-20T19:15:42.036Z,50.53
2022-09-20T19:18:24.518Z,50.80
2022-09-20T19:21:18.672Z,51.06
2022-09-20T19:24:03.349Z,51.68
2022-09-20T19:26:32.511Z,51.73
2022-09-20T19:29:00.395Z,51.55
2022-09-20T19:31:30.185Z,51.79
2022-09-20T19:33:59.709Z,52.07
2022-09-20T19:36:38.993Z,51.59
2022-09-20T19:39:18.694Z,51.75
2022-09-20T19:42:00.440Z,52.29
2022-09-20T19:45:14.330Z,52.24
2022-09-20T19:47:47.499Z,52.59
2022-09-20T19:50:27.274Z,52.74
2022-09-20T19:52:56.360Z,53.15
2022-09-20T19:55:23.456Z,53.14
2022-09-20T19:57:51.131Z,53.30
2022-09-20T20:00:20.677Z,53.81
2022-09-20T20:02:47.837Z,53.42
2022-09-20T20:05:17.704Z,53.90
2022-09-20T20:08:09.037Z,53.82
2022-09-20T20:10:54.231Z,54.43
2022-09-20T20:13:59.409Z,54.11
2022-09-20T20:16:55.351Z,54.75
2022-09-20T20:19:22.141Z,54.99
2022-09-20T20:22:19.398Z,55.17
2022-09-20T20:24:53.868Z,55.54
2022-09-20T20:27:21.141Z,55.51
2022-09-20T20:29:48.164Z,55.66
2022-09-20T20:32:15.480Z,55.82
2022-09-20T20:34:42.469Z,55.93
2022-09-20T20:37:09.399Z,55.99
2022-09-20T20:39:36.276Z,56.21
2022-09-20T20:42:08.510Z,56.08
2022-09-20T20:44:35.318Z,55.89
2022-09-20T20:47:06.844Z,56.26
2022-09-20T20:49:33.897Z,55.99
2022-09-20T20:52:04.834Z,56.21
2022-09-20T20:54:32.803Z,56.37
2022-09-20T20:56:59.893Z,56.31
2022-09-20T20:59:26.932Z,56.37
2022-09-20T21:01:54.010Z,56.22
2022-09-20T21:04:21.862Z,56.31
2022-09-20T21:06:50.300Z,56.60
2022-09-20T21:09:19.723Z,56.72
2022-09-20T21:11:48.619Z,56.73
2022-09-20T21:14:32.063Z,56.26
2022-09-20T21:17:05.197Z,56.19
2022-09-20T21:19:32.152Z,56.12
2022-09-20T21:21:59.227Z,56.07
2022-09-20T21:24:26.097Z,56.36
2022-09-20T21:26:53.815Z,56.34
2022-09-20T21:29:21.001Z,56.32
2022-09-20T21:31:47.956Z,55.90
2022-09-20T21:34:16.274Z,56.13
2022-09-20T21:36:44.866Z,56.38
2022-09-20T21:39:12.307Z,56.21
2022-09-20T21:41:40.306Z,56.14
2022-09-20T21:44:10.818Z,56.14
2022-09-20T21:46:42.825Z,56.25
2022-09-20T21:49:11.482Z,56.58
2022-09-20T21:51:40.360Z,56.60
2022-09-20T21:54:07.511Z,56.41
2022-09-20T21:56:39.042Z,56.15
2022-09-20T21:59:06.444Z,56.06
2022-09-20T22:01:39.049Z,55.91
2022-09-20T22:04:08.245Z,56.46
2022-09-20T22:06:37.573Z,56.15
2022-09-20T22:09:08.113Z,56.10
2022-09-20T22:11:43.346Z,56.15
2022-09-20T22:14:12.474Z,56.63
2022-09-20T22:16:47.017Z,56.73
2022-09-20T22:19:17.541Z,56.83
2022-09-20T22:21:46.977Z,56.57
2022-09-20T22:24:15.285Z,56.50
2022-09-20T22:26:44.769Z,57.03
2022-09-20T22:29:12.091Z,56.73
2022-09-20T22:31:47.722Z,57.16
2022-09-20T22:34:22.580Z,56.87
2022-09-20T22:36:49.760Z,57.35
2022-09-20T22:39:17.209Z,57.27
2022-09-20T22:41:45.045Z,57.46
2022-09-20T22:44:12.067Z,56.89
2022-09-20T22:46:39.462Z,57.25
2022-09-20T22:49:07.397Z,57.43
2022-09-20T22:51:34.807Z,57.87
2022-09-20T22:54:06.484Z,57.83
2022-09-20T22:56:34.584Z,57.81
2022-09-20T22:59:11.985Z,58.25
2022-09-20T23:01:48.099Z,58.11
2022-09-20T23:04:17.702Z,57.88
2022-09-20T23:06:52.065Z,58.19
2022-09-20T23:09:19.089Z,58.50
2022-09-20T23:11:46.894Z,58.30
2022-09-20T23:14:17.369Z,58.62
2022-09-20T23:16:44.728Z,58.70
2022-09-20T23:19:12.728Z,58.61
2022-09-20T23:21:40.983Z,58.92
2022-09-20T23:24:11.115Z,58.58
2022-09-20T23:26:39.815Z,58.64
2022-09-20T23:29:09.325Z,59.04
2022-09-20T23:31:37.801Z,58.77
2022-09-20T23:34:06.765Z,58.94
2022-09-20T23:36:36.516Z,58.74
2022-09-20T23:39:03.187Z,58.43
2022-09-20T23:41:30.334Z,58.86
2022-09-20T23:43:57.308Z,59.36
2022-09-20T23:46:26.200Z,59.10
2022-09-20T23:48:53.548Z,58.99
2022-09-20T23:51:23.608Z,59.72
2022-09-20T23:53:52.020Z,59.43
2022-09-20T23:56:20.117Z,59.61
2022-09-20T23:58:47.430Z,60.03
